sensor_id;sensor_type;location;lat;lon;timestamp;pressure;altitude;pressure_sealevel;temperature;humidity
14117;BME280;7137;51.436;6.544;2023-02-08T00:02:59;103506.38;;;-0.85;93.05
14117;BME280;7137;51.436;6.544;2023-02-08T00:06:01;103502.16;;;-0.84;93.14
14117;BME280;7137;51.436;6.544;2023-02-08T00:09:04;103498.00;;;-0.82;93.44
14117;BME280;7137;51.436;6.544;2023-02-08T00:12:07;103496.31;;;-0.82;93.05
14117;BME280;7137;51.436;6.544;2023-02-08T00:15:09;103496.22;;;-0.83;92.70
14117;BME280;7137;51.436;6.544;2023-02-08T00:18:11;103493.66;;;-0.83;92.58
14117;BME280;7137;51.436;6.544;2023-02-08T00:21:15;103490.88;;;-0.86;91.91
14117;BME280;7137;51.436;6.544;2023-02-08T00:24:18;103489.03;;;-0.89;92.25
14117;BME280;7137;51.436;6.544;2023-02-08T00:27:19;103490.72;;;-0.90;92.25
14117;BME280;7137;51.436;6.544;2023-02-08T00:30:21;103486.19;;;-0.94;92.31
14117;BME280;7137;51.436;6.544;2023-02-08T00:33:23;103480.91;;;-0.97;92.04
14117;BME280;7137;51.436;6.544;2023-02-08T00:36:24;103480.69;;;-1.00;92.15
14117;BME280;7137;51.436;6.544;2023-02-08T00:39:27;103473.78;;;-1.01;92.45
14117;BME280;7137;51.436;6.544;2023-02-08T00:42:28;103473.69;;;-1.02;92.48
14117;BME280;7137;51.436;6.544;2023-02-08T00:45:31;103475.28;;;-1.04;92.71
14117;BME280;7137;51.436;6.544;2023-02-08T00:48:33;103479.53;;;-1.05;92.74
14117;BME280;7137;51.436;6.544;2023-02-08T00:51:35;103474.31;;;-1.06;93.15
14117;BME280;7137;51.436;6.544;2023-02-08T00:54:37;103468.38;;;-1.05;93.03
14117;BME280;7137;51.436;6.544;2023-02-08T00:57:41;103465.66;;;-1.08;92.89
14117;BME280;7137;51.436;6.544;2023-02-08T01:00:42;103465.66;;;-1.08;92.04
14117;BME280;7137;51.436;6.544;2023-02-08T01:03:44;103469.78;;;-1.10;92.74
14117;BME280;7137;51.436;6.544;2023-02-08T01:06:47;103460.44;;;-1.10;92.64
14117;BME280;7137;51.436;6.544;2023-02-08T01:09:50;103465.56;;;-1.10;92.19
14117;BME280;7137;51.436;6.544;2023-02-08T01:12:52;103465.56;;;-1.10;91.80
14117;BME280;7137;51.436;6.544;2023-02-08T01:15:53;103459.31;;;-1.13;91.84
14117;BME280;7137;51.436;6.544;2023-02-08T01:18:56;103468.81;;;-1.12;91.58
14117;BME280;7137;51.436;6.544;2023-02-08T01:21:58;103462.78;;;-1.13;91.21
14117;BME280;7137;51.436;6.544;2023-02-08T01:25:02;103466.03;;;-1.15;91.41
14117;BME280;7137;51.436;6.544;2023-02-08T01:28:04;103470.19;;;-1.17;91.42
14117;BME280;7137;51.436;6.544;2023-02-08T01:31:07;103468.34;;;-1.20;91.04
14117;BME280;7137;51.436;6.544;2023-02-08T01:34:10;103458.69;;;-1.24;91.44
14117;BME280;7137;51.436;6.544;2023-02-08T01:37:12;103452.59;;;-1.26;91.04
14117;BME280;7137;51.436;6.544;2023-02-08T01:40:15;103447.88;;;-1.33;91.37
14117;BME280;7137;51.436;6.544;2023-02-08T01:43:21;103454.75;;;-1.32;91.19
14117;BME280;7137;51.436;6.544;2023-02-08T01:46:24;103461.66;;;-1.31;91.06
14117;BME280;7137;51.436;6.544;2023-02-08T01:49:28;103452.13;;;-1.34;90.81
14117;BME280;7137;51.436;6.544;2023-02-08T01:52:30;103456.25;;;-1.36;91.08
14117;BME280;7137;51.436;6.544;2023-02-08T01:55:37;103450.06;;;-1.39;91.02
14117;BME280;7137;51.436;6.544;2023-02-08T01:58:43;103452.50;;;-1.41;90.99
14117;BME280;7137;51.436;6.544;2023-02-08T02:01:48;103452.63;;;-1.39;90.80
14117;BME280;7137;51.436;6.544;2023-02-08T02:04:51;103457.75;;;-1.39;90.66
14117;BME280;7137;51.436;6.544;2023-02-08T02:07:55;103453.13;;;-1.45;90.67
14117;BME280;7137;51.436;6.544;2023-02-08T02:10:59;103456.47;;;-1.46;90.65
14117;BME280;7137;51.436;6.544;2023-02-08T02:14:00;103456.38;;;-1.47;91.17
14117;BME280;7137;51.436;6.544;2023-02-08T02:17:03;103450.28;;;-1.50;91.32
14117;BME280;7137;51.436;6.544;2023-02-08T02:20:10;103449.41;;;-1.50;91.14
14117;BME280;7137;51.436;6.544;2023-02-08T02:23:51;103452.66;;;-1.53;90.87
14117;BME280;7137;51.436;6.544;2023-02-08T02:31:07;103447.03;;;-1.60;90.86
14117;BME280;7137;51.436;6.544;2023-02-08T02:34:24;103446.06;;;-1.62;90.76
14117;BME280;7137;51.436;6.544;2023-02-08T02:37:36;103445.09;;;-1.64;90.74
14117;BME280;7137;51.436;6.544;2023-02-08T02:40:49;103440.75;;;-1.65;90.56
14117;BME280;7137;51.436;6.544;2023-02-08T02:43:56;103431.22;;;-1.68;90.53
14117;BME280;7137;51.436;6.544;2023-02-08T02:47:05;103431.09;;;-1.69;90.77
14117;BME280;7137;51.436;6.544;2023-02-08T02:50:16;103435.53;;;-1.67;90.59
14117;BME280;7137;51.436;6.544;2023-02-08T02:53:26;103436.53;;;-1.65;89.32
14117;BME280;7137;51.436;6.544;2023-02-08T02:56:34;103426.38;;;-1.63;88.46
14117;BME280;7137;51.436;6.544;2023-02-08T02:59:38;103437.31;;;-1.66;88.83
14117;BME280;7137;51.436;6.544;2023-02-08T03:02:41;103427.06;;;-1.66;89.23
14117;BME280;7137;51.436;6.544;2023-02-08T03:05:45;103438.91;;;-1.68;89.10
14117;BME280;7137;51.436;6.544;2023-02-08T03:09:01;103436.22;;;-1.69;89.08
14117;BME280;7137;51.436;6.544;2023-02-08T03:12:14;103429.22;;;-1.72;89.28
14117;BME280;7137;51.436;6.544;2023-02-08T03:15:28;103440.16;;;-1.74;88.81
14117;BME280;7137;51.436;6.544;2023-02-08T03:18:35;103446.59;;;-1.68;88.01
14117;BME280;7137;51.436;6.544;2023-02-08T03:21:42;103443.59;;;-1.61;86.65
14117;BME280;7137;51.436;6.544;2023-02-08T03:24:51;103452.00;;;-1.63;86.86
14117;BME280;7137;51.436;6.544;2023-02-08T03:28:00;103447.47;;;-1.67;86.69
14117;BME280;7137;51.436;6.544;2023-02-08T03:31:10;103448.44;;;-1.65;86.79
14117;BME280;7137;51.436;6.544;2023-02-08T03:34:16;103450.03;;;-1.67;86.63
14117;BME280;7137;51.436;6.544;2023-02-08T03:37:23;103441.34;;;-1.69;87.16
14117;BME280;7137;51.436;6.544;2023-02-08T03:40:28;103441.16;;;-1.72;87.14
14117;BME280;7137;51.436;6.544;2023-02-08T03:43:34;103443.44;;;-1.77;87.77
14117;BME280;7137;51.436;6.544;2023-02-08T03:46:39;103439.81;;;-1.81;87.68
14117;BME280;7137;51.436;6.544;2023-02-08T03:49:45;103435.06;;;-1.88;87.74
14117;BME280;7137;51.436;6.544;2023-02-08T03:52:51;103447.28;;;-1.84;87.77
14117;BME280;7137;51.436;6.544;2023-02-08T03:55:57;103442.66;;;-1.89;87.61
14117;BME280;7137;51.436;6.544;2023-02-08T03:59:03;103437.25;;;-1.94;87.94
14117;BME280;7137;51.436;6.544;2023-02-08T04:02:11;103441.25;;;-1.97;88.22
14117;BME280;7137;51.436;6.544;2023-02-08T04:05:14;103443.97;;;-1.96;88.32
14117;BME280;7137;51.436;6.544;2023-02-08T04:08:18;103440.69;;;-1.93;88.65
14117;BME280;7137;51.436;6.544;2023-02-08T04:11:19;103445.50;;;-1.98;88.87
14117;BME280;7137;51.436;6.544;2023-02-08T04:14:21;103445.50;;;-1.98;88.46
14117;BME280;7137;51.436;6.544;2023-02-08T04:17:22;103445.50;;;-1.98;88.72
14117;BME280;7137;51.436;6.544;2023-02-08T04:20:24;103446.63;;;-1.94;87.78
14117;BME280;7137;51.436;6.544;2023-02-08T04:23:27;103450.94;;;-1.93;88.86
14117;BME280;7137;51.436;6.544;2023-02-08T04:26:28;103444.75;;;-1.97;88.98
14117;BME280;7137;51.436;6.544;2023-02-08T04:29:30;103447.19;;;-1.98;89.04
14117;BME280;7137;51.436;6.544;2023-02-08T04:32:32;103434.97;;;-2.02;89.79
14117;BME280;7137;51.436;6.544;2023-02-08T04:35:33;103445.13;;;-2.04;89.50
14117;BME280;7137;51.436;6.544;2023-02-08T04:38:36;103434.09;;;-2.03;89.99
14117;BME280;7137;51.436;6.544;2023-02-08T04:41:38;103448.66;;;-2.02;90.03
14117;BME280;7137;51.436;6.544;2023-02-08T04:44:39;103440.88;;;-2.03;90.49
14117;BME280;7137;51.436;6.544;2023-02-08T04:47:41;103455.19;;;-2.07;89.93
14117;BME280;7137;51.436;6.544;2023-02-08T04:50:43;103437.94;;;-2.10;90.67
14117;BME280;7137;51.436;6.544;2023-02-08T04:53:46;103448.75;;;-2.14;90.71
14117;BME280;7137;51.436;6.544;2023-02-08T04:56:48;103445.81;;;-2.20;91.11
14117;BME280;7137;51.436;6.544;2023-02-08T04:59:49;103452.81;;;-2.17;90.70
14117;BME280;7137;51.436;6.544;2023-02-08T05:02:52;103447.69;;;-2.17;90.34
14117;BME280;7137;51.436;6.544;2023-02-08T05:05:57;103453.69;;;-2.17;89.86
14117;BME280;7137;51.436;6.544;2023-02-08T05:09:00;103451.81;;;-2.19;90.34
14117;BME280;7137;51.436;6.544;2023-02-08T05:12:01;103450.94;;;-2.20;90.82
14117;BME280;7137;51.436;6.544;2023-02-08T05:15:04;103452.50;;;-2.22;90.41
14117;BME280;7137;51.436;6.544;2023-02-08T05:18:06;103448.66;;;-2.15;90.33
14117;BME280;7137;51.436;6.544;2023-02-08T05:21:07;103438.75;;;-2.11;89.38
14117;BME280;7137;51.436;6.544;2023-02-08T05:24:11;103441.06;;;-2.14;90.05
14117;BME280;7137;51.436;6.544;2023-02-08T05:27:12;103447.41;;;-2.22;90.71
14117;BME280;7137;51.436;6.544;2023-02-08T05:30:14;103437.72;;;-2.26;90.95
14117;BME280;7137;51.436;6.544;2023-02-08T05:33:16;103442.75;;;-2.27;91.89
14117;BME280;7137;51.436;6.544;2023-02-08T05:36:19;103443.44;;;-2.30;91.51
14117;BME280;7137;51.436;6.544;2023-02-08T05:39:22;103452.69;;;-2.32;92.39
14117;BME280;7137;51.436;6.544;2023-02-08T05:42:24;103451.03;;;-2.31;92.46
14117;BME280;7137;51.436;6.544;2023-02-08T05:45:26;103449.25;;;-2.32;92.13
14117;BME280;7137;51.436;6.544;2023-02-08T05:48:29;103445.72;;;-2.34;92.39
14117;BME280;7137;51.436;6.544;2023-02-08T05:51:31;103443.06;;;-2.36;92.78
14117;BME280;7137;51.436;6.544;2023-02-08T05:54:34;103451.72;;;-2.34;92.14
14117;BME280;7137;51.436;6.544;2023-02-08T05:57:36;103443.84;;;-2.37;92.32
14117;BME280;7137;51.436;6.544;2023-02-08T06:00:37;103442.97;;;-2.37;92.36
14117;BME280;7137;51.436;6.544;2023-02-08T06:03:39;103452.06;;;-2.41;92.97
14117;BME280;7137;51.436;6.544;2023-02-08T06:06:41;103445.28;;;-2.41;93.18
14117;BME280;7137;51.436;6.544;2023-02-08T06:09:44;103445.19;;;-2.42;93.42
14117;BME280;7137;51.436;6.544;2023-02-08T06:12:47;103448.63;;;-2.42;92.55
14117;BME280;7137;51.436;6.544;2023-02-08T06:15:49;103458.09;;;-2.41;92.53
14117;BME280;7137;51.436;6.544;2023-02-08T06:18:50;103452.97;;;-2.41;92.29
14117;BME280;7137;51.436;6.544;2023-02-08T06:21:53;103457.88;;;-2.44;92.64
14117;BME280;7137;51.436;6.544;2023-02-08T06:24:56;103450.91;;;-2.46;92.35
14117;BME280;7137;51.436;6.544;2023-02-08T06:27:58;103455.13;;;-2.47;93.29
14117;BME280;7137;51.436;6.544;2023-02-08T06:30:59;103455.13;;;-2.47;93.07
14117;BME280;7137;51.436;6.544;2023-02-08T06:34:01;103450.91;;;-2.46;93.40
14117;BME280;7137;51.436;6.544;2023-02-08T06:37:03;103452.56;;;-2.47;92.90
14117;BME280;7137;51.436;6.544;2023-02-08T06:40:07;103448.25;;;-2.48;93.70
14117;BME280;7137;51.436;6.544;2023-02-08T06:43:09;103452.56;;;-2.47;93.58
14117;BME280;7137;51.436;6.544;2023-02-08T06:46:11;103443.22;;;-2.46;93.75
14117;BME280;7137;51.436;6.544;2023-02-08T06:49:12;103443.31;;;-2.45;93.79
14117;BME280;7137;51.436;6.544;2023-02-08T06:52:14;103440.66;;;-2.46;93.51
14117;BME280;7137;51.436;6.544;2023-02-08T06:55:17;103436.44;;;-2.46;94.15
14117;BME280;7137;51.436;6.544;2023-02-08T06:58:19;103430.53;;;-2.45;94.24
14117;BME280;7137;51.436;6.544;2023-02-08T07:01:20;103433.09;;;-2.45;94.34
14117;BME280;7137;51.436;6.544;2023-02-08T07:04:22;103430.72;;;-2.42;93.77
14117;BME280;7137;51.436;6.544;2023-02-08T07:07:23;103423.16;;;-2.40;94.36
14117;BME280;7137;51.436;6.544;2023-02-08T07:10:26;103424.25;;;-2.36;93.88
14117;BME280;7137;51.436;6.544;2023-02-08T07:13:28;103424.34;;;-2.35;93.90
14117;BME280;7137;51.436;6.544;2023-02-08T07:16:30;103440.19;;;-2.27;94.27
14117;BME280;7137;51.436;6.544;2023-02-08T07:19:31;103434.50;;;-2.23;93.63
14117;BME280;7137;51.436;6.544;2023-02-08T07:22:34;103435.47;;;-2.21;94.20
14117;BME280;7137;51.436;6.544;2023-02-08T07:25:37;103431.63;;;-2.15;93.94
14117;BME280;7137;51.436;6.544;2023-02-08T07:28:39;103427.91;;;-2.06;94.54
14117;BME280;7137;51.436;6.544;2023-02-08T07:31:40;103425.63;;;-2.02;94.37
14117;BME280;7137;51.436;6.544;2023-02-08T07:34:42;103421.00;;;-1.94;94.61
14117;BME280;7137;51.436;6.544;2023-02-08T07:37:44;103421.66;;;-1.84;94.34
14117;BME280;7137;51.436;6.544;2023-02-08T07:40:47;103416.94;;;-1.77;94.46
14117;BME280;7137;51.436;6.544;2023-02-08T07:43:49;103417.31;;;-1.71;94.92
14117;BME280;7137;51.436;6.544;2023-02-08T07:46:50;103419.28;;;-1.67;94.30
14117;BME280;7137;51.436;6.544;2023-02-08T07:49:52;103420.34;;;-1.64;94.46
14117;BME280;7137;51.436;6.544;2023-02-08T07:52:53;103416.22;;;-1.62;94.28
14117;BME280;7137;51.436;6.544;2023-02-08T07:55:57;103416.47;;;-1.57;94.08
14117;BME280;7137;51.436;6.544;2023-02-08T07:58:58;103405.75;;;-1.52;93.64
14117;BME280;7137;51.436;6.544;2023-02-08T08:02:00;103411.94;;;-1.48;93.99
14117;BME280;7137;51.436;6.544;2023-02-08T08:05:02;103409.84;;;-1.40;93.49
14117;BME280;7137;51.436;6.544;2023-02-08T08:08:03;103409.25;;;-1.36;93.55
14117;BME280;7137;51.436;6.544;2023-02-08T08:11:06;103416.72;;;-1.26;93.49
14117;BME280;7137;51.436;6.544;2023-02-08T08:14:07;103420.69;;;-1.16;92.69
14117;BME280;7137;51.436;6.544;2023-02-08T08:17:09;103429.22;;;-1.03;92.35
14117;BME280;7137;51.436;6.544;2023-02-08T08:20:11;103412.16;;;-0.87;91.07
14117;BME280;7137;51.436;6.544;2023-02-08T08:23:12;103417.31;;;-0.73;91.19
14117;BME280;7137;51.436;6.544;2023-02-08T08:26:18;103413.69;;;-0.62;91.76
14117;BME280;7137;51.436;6.544;2023-02-08T08:29:20;103421.38;;;-0.47;91.89
14117;BME280;7137;51.436;6.544;2023-02-08T08:32:22;103415.44;;;-0.31;91.40
14117;BME280;7137;51.436;6.544;2023-02-08T08:35:24;103419.31;;;-0.08;90.57
14117;BME280;7137;51.436;6.544;2023-02-08T08:38:25;103405.03;;;0.28;89.97
14117;BME280;7137;51.436;6.544;2023-02-08T08:41:28;103402.63;;;1.64;94.96
14117;BME280;7137;51.436;6.544;2023-02-08T08:44:30;103407.19;;;5.48;84.85
14117;BME280;7137;51.436;6.544;2023-02-08T08:47:32;103394.25;;;8.33;69.21
14117;BME280;7137;51.436;6.544;2023-02-08T08:50:33;103404.16;;;10.58;54.33
14117;BME280;7137;51.436;6.544;2023-02-08T08:53:35;103399.53;;;12.26;46.89
14117;BME280;7137;51.436;6.544;2023-02-08T08:56:38;103396.28;;;12.95;41.77
14117;BME280;7137;51.436;6.544;2023-02-08T08:59:40;103404.22;;;13.36;38.08
14117;BME280;7137;51.436;6.544;2023-02-08T09:02:41;103415.63;;;13.54;36.32
14117;BME280;7137;51.436;6.544;2023-02-08T09:05:43;103422.59;;;13.78;34.75
14117;BME280;7137;51.436;6.544;2023-02-08T09:08:45;103424.19;;;14.43;32.32
14117;BME280;7137;51.436;6.544;2023-02-08T09:11:48;103420.59;;;14.64;31.63
14117;BME280;7137;51.436;6.544;2023-02-08T09:14:50;103413.56;;;14.73;32.14
14117;BME280;7137;51.436;6.544;2023-02-08T09:17:51;103415.34;;;14.64;31.60
14117;BME280;7137;51.436;6.544;2023-02-08T09:20:53;103409.31;;;14.45;31.57
14117;BME280;7137;51.436;6.544;2023-02-08T09:23:54;103403.13;;;14.57;32.76
14117;BME280;7137;51.436;6.544;2023-02-08T09:26:57;103404.91;;;14.35;32.67
14117;BME280;7137;51.436;6.544;2023-02-08T09:29:59;103403.34;;;13.82;31.52
14117;BME280;7137;51.436;6.544;2023-02-08T09:33:01;103402.41;;;12.96;34.78
14117;BME280;7137;51.436;6.544;2023-02-08T09:36:03;103410.69;;;11.96;35.93
14117;BME280;7137;51.436;6.544;2023-02-08T09:39:08;103407.25;;;12.00;35.36
14117;BME280;7137;51.436;6.544;2023-02-08T09:42:20;103404.41;;;11.75;34.83
14117;BME280;7137;51.436;6.544;2023-02-08T09:45:31;103404.19;;;11.46;36.47
14117;BME280;7137;51.436;6.544;2023-02-08T09:48:38;103412.19;;;11.66;34.95
14117;BME280;7137;51.436;6.544;2023-02-08T09:51:44;103410.19;;;11.35;36.19
14117;BME280;7137;51.436;6.544;2023-02-08T09:54:51;103415.25;;;11.15;35.92
14117;BME280;7137;51.436;6.544;2023-02-08T09:57:57;103410.34;;;10.68;37.48
14117;BME280;7137;51.436;6.544;2023-02-08T10:01:00;103409.78;;;10.95;37.75
14117;BME280;7137;51.436;6.544;2023-02-08T10:04:08;103409.59;;;10.11;37.45
14117;BME280;7137;51.436;6.544;2023-02-08T10:07:12;103403.31;;;9.43;38.59
14117;BME280;7137;51.436;6.544;2023-02-08T10:10:18;103404.59;;;9.15;39.78
14117;BME280;7137;51.436;6.544;2023-02-08T10:13:50;103411.81;;;9.31;38.59
14117;BME280;7137;51.436;6.544;2023-02-08T10:17:03;103414.66;;;8.97;38.57
14117;BME280;7137;51.436;6.544;2023-02-08T10:20:18;103416.56;;;9.05;38.44
14117;BME280;7137;51.436;6.544;2023-02-08T10:23:40;103414.53;;;8.47;39.42
14117;BME280;7137;51.436;6.544;2023-02-08T10:26:48;103418.88;;;8.46;39.64
14117;BME280;7137;51.436;6.544;2023-02-08T10:30:17;103410.13;;;8.44;40.87
14117;BME280;7137;51.436;6.544;2023-02-08T10:33:25;103419.22;;;8.24;40.10
14117;BME280;7137;51.436;6.544;2023-02-08T10:36:30;103411.09;;;8.10;40.95
14117;BME280;7137;51.436;6.544;2023-02-08T10:39:34;103406.69;;;7.70;41.39
14117;BME280;7137;51.436;6.544;2023-02-08T10:42:37;103402.91;;;7.57;43.36
14117;BME280;7137;51.436;6.544;2023-02-08T10:45:48;103399.19;;;7.46;42.79
14117;BME280;7137;51.436;6.544;2023-02-08T10:49:01;103402.91;;;7.23;42.25
14117;BME280;7137;51.436;6.544;2023-02-08T10:52:08;103400.31;;;7.23;40.95
14117;BME280;7137;51.436;6.544;2023-02-08T10:55:12;103389.81;;;7.18;41.39
14117;BME280;7137;51.436;6.544;2023-02-08T10:58:17;103391.34;;;7.11;39.43
14117;BME280;7137;51.436;6.544;2023-02-08T11:01:20;103403.44;;;7.09;41.10
14117;BME280;7137;51.436;6.544;2023-02-08T11:04:22;103397.78;;;6.93;38.47
14117;BME280;7137;51.436;6.544;2023-02-08T11:07:24;103388.63;;;7.07;42.03
14117;BME280;7137;51.436;6.544;2023-02-08T11:10:26;103388.00;;;7.17;40.09
14117;BME280;7137;51.436;6.544;2023-02-08T11:13:32;103390.06;;;7.29;40.57
14117;BME280;7137;51.436;6.544;2023-02-08T11:16:35;103376.53;;;7.42;41.10
14117;BME280;7137;51.436;6.544;2023-02-08T11:19:38;103380.47;;;7.61;39.75
14117;BME280;7137;51.436;6.544;2023-02-08T11:22:46;103377.91;;;8.01;38.36
14117;BME280;7137;51.436;6.544;2023-02-08T11:25:48;103368.28;;;8.35;38.19
14117;BME280;7137;51.436;6.544;2023-02-08T11:28:59;103367.38;;;8.77;37.25
14117;BME280;7137;51.436;6.544;2023-02-08T11:32:14;103363.22;;;9.38;35.71
14117;BME280;7137;51.436;6.544;2023-02-08T11:35:20;103360.72;;;10.01;34.46
14117;BME280;7137;51.436;6.544;2023-02-08T11:38:22;103354.19;;;10.32;31.05
14117;BME280;7137;51.436;6.544;2023-02-08T11:41:28;103353.84;;;10.08;32.19
14117;BME280;7137;51.436;6.544;2023-02-08T11:44:31;103349.81;;;10.28;31.08
14117;BME280;7137;51.436;6.544;2023-02-08T11:47:36;103343.22;;;10.61;29.44
14117;BME280;7137;51.436;6.544;2023-02-08T11:50:38;103351.38;;;10.94;29.92
14117;BME280;7137;51.436;6.544;2023-02-08T11:53:45;103342.41;;;10.68;28.71
14117;BME280;7137;51.436;6.544;2023-02-08T11:57:00;103350.00;;;11.36;28.66
14117;BME280;7137;51.436;6.544;2023-02-08T12:00:17;103343.97;;;11.40;28.10
14117;BME280;7137;51.436;6.544;2023-02-08T12:03:24;103333.44;;;11.34;27.72
14117;BME280;7137;51.436;6.544;2023-02-08T12:10:20;103310.28;;;10.83;27.94
14117;BME280;7137;51.436;6.544;2023-02-08T12:13:51;103315.50;;;10.80;28.23
14117;BME280;7137;51.436;6.544;2023-02-08T12:17:08;103318.50;;;10.34;28.44
14117;BME280;7137;51.436;6.544;2023-02-08T12:23:52;103298.84;;;9.34;27.86
14117;BME280;7137;51.436;6.544;2023-02-08T12:27:10;103298.25;;;8.99;31.32
14117;BME280;7137;51.436;6.544;2023-02-08T12:30:20;103297.00;;;8.75;31.50
14117;BME280;7137;51.436;6.544;2023-02-08T12:33:33;103297.69;;;8.67;30.98
14117;BME280;7137;51.436;6.544;2023-02-08T12:36:59;103290.56;;;8.58;31.00
14117;BME280;7137;51.436;6.544;2023-02-08T12:40:31;103288.47;;;8.39;31.26
14117;BME280;7137;51.436;6.544;2023-02-08T12:43:56;103289.53;;;8.47;31.18
14117;BME280;7137;51.436;6.544;2023-02-08T12:47:07;103281.56;;;8.41;31.24
14117;BME280;7137;51.436;6.544;2023-02-08T12:50:19;103270.84;;;8.27;31.24
14117;BME280;7137;51.436;6.544;2023-02-08T12:53:32;103273.47;;;8.28;30.99
14117;BME280;7137;51.436;6.544;2023-02-08T12:56:39;103267.59;;;8.36;31.63
14117;BME280;7137;51.436;6.544;2023-02-08T12:59:43;103263.03;;;8.27;30.46
14117;BME280;7137;51.436;6.544;2023-02-08T13:02:51;103260.38;;;8.22;30.81
14117;BME280;7137;51.436;6.544;2023-02-08T13:05:56;103252.66;;;8.28;31.79
14117;BME280;7137;51.436;6.544;2023-02-08T13:09:02;103256.09;;;8.27;31.82
14117;BME280;7137;51.436;6.544;2023-02-08T13:12:12;103237.97;;;8.30;32.17
14117;BME280;7137;51.436;6.544;2023-02-08T13:15:19;103242.41;;;8.35;31.17
14117;BME280;7137;51.436;6.544;2023-02-08T13:18:24;103228.66;;;8.43;30.47
14117;BME280;7137;51.436;6.544;2023-02-08T13:21:33;103220.69;;;8.34;30.72
14117;BME280;7137;51.436;6.544;2023-02-08T13:24:41;103214.44;;;8.27;30.69
14117;BME280;7137;51.436;6.544;2023-02-08T13:27:43;103211.94;;;8.30;29.75
14117;BME280;7137;51.436;6.544;2023-02-08T13:30:51;103213.69;;;8.33;30.77
14117;BME280;7137;51.436;6.544;2023-02-08T13:33:55;103211.06;;;8.31;29.46
14117;BME280;7137;51.436;6.544;2023-02-08T13:37:01;103206.66;;;8.29;30.15
14117;BME280;7137;51.436;6.544;2023-02-08T13:40:07;103204.03;;;8.27;31.37
14117;BME280;7137;51.436;6.544;2023-02-08T13:43:23;103192.72;;;8.25;31.53
14117;BME280;7137;51.436;6.544;2023-02-08T13:46:34;103186.09;;;8.43;31.62
14117;BME280;7137;51.436;6.544;2023-02-08T13:49:51;103187.13;;;8.51;30.93
14117;BME280;7137;51.436;6.544;2023-02-08T13:52:53;103183.69;;;8.52;30.41
14117;BME280;7137;51.436;6.544;2023-02-08T13:55:58;103171.56;;;8.54;30.80
14117;BME280;7137;51.436;6.544;2023-02-08T13:59:00;103173.44;;;8.62;30.88
14117;BME280;7137;51.436;6.544;2023-02-08T14:02:25;103170.09;;;8.71;30.71
14117;BME280;7137;51.436;6.544;2023-02-08T14:05:43;103167.66;;;8.82;30.08
14117;BME280;7137;51.436;6.544;2023-02-08T14:08:53;103167.63;;;8.80;31.33
14117;BME280;7137;51.436;6.544;2023-02-08T14:12:01;103166.03;;;8.87;30.60
14117;BME280;7137;51.436;6.544;2023-02-08T14:15:31;103158.94;;;8.78;31.72
14117;BME280;7137;51.436;6.544;2023-02-08T14:18:33;103155.47;;;8.79;31.43
14117;BME280;7137;51.436;6.544;2023-02-08T14:21:38;103149.34;;;8.77;31.71
14117;BME280;7137;51.436;6.544;2023-02-08T14:24:45;103149.22;;;8.70;31.58
14117;BME280;7137;51.436;6.544;2023-02-08T14:27:51;103139.69;;;8.72;32.39
14117;BME280;7137;51.436;6.544;2023-02-08T14:30:56;103132.53;;;8.58;32.89
14117;BME280;7137;51.436;6.544;2023-02-08T14:33:58;103130.94;;;8.65;32.91
14117;BME280;7137;51.436;6.544;2023-02-08T14:37:03;103128.38;;;8.70;32.46
14117;BME280;7137;51.436;6.544;2023-02-08T14:40:31;103125.78;;;8.70;32.64
14117;BME280;7137;51.436;6.544;2023-02-08T14:43:36;103124.13;;;8.75;32.52
14117;BME280;7137;51.436;6.544;2023-02-08T14:46:43;103118.91;;;8.75;32.11
14117;BME280;7137;51.436;6.544;2023-02-08T14:49:46;103117.03;;;8.65;32.59
14117;BME280;7137;51.436;6.544;2023-02-08T14:52:53;103104.06;;;8.69;31.65
14117;BME280;7137;51.436;6.544;2023-02-08T14:56:00;103093.59;;;8.66;31.58
14117;BME280;7137;51.436;6.544;2023-02-08T14:59:08;103103.13;;;8.64;31.83
14117;BME280;7137;51.436;6.544;2023-02-08T15:02:19;103095.94;;;8.49;32.95
14117;BME280;7137;51.436;6.544;2023-02-08T15:05:22;103091.00;;;8.66;33.11
14117;BME280;7137;51.436;6.544;2023-02-08T15:08:26;103097.00;;;8.60;33.55
14117;BME280;7137;51.436;6.544;2023-02-08T15:11:30;103081.28;;;8.56;33.32
14117;BME280;7137;51.436;6.544;2023-02-08T15:14:35;103077.81;;;8.57;32.73
14117;BME280;7137;51.436;6.544;2023-02-08T15:17:39;103078.69;;;8.57;32.56
14117;BME280;7137;51.436;6.544;2023-02-08T15:20:44;103086.25;;;8.41;33.54
14117;BME280;7137;51.436;6.544;2023-02-08T15:23:58;103077.47;;;8.34;33.01
14117;BME280;7137;51.436;6.544;2023-02-08T15:26:59;103071.09;;;8.17;33.95
14117;BME280;7137;51.436;6.544;2023-02-08T15:30:03;103068.41;;;8.14;32.82
14117;BME280;7137;51.436;6.544;2023-02-08T15:33:08;103070.75;;;7.98;33.83
14117;BME280;7137;51.436;6.544;2023-02-08T15:36:15;103080.22;;;7.93;33.03
14117;BME280;7137;51.436;6.544;2023-02-08T15:39:29;103074.88;;;7.87;33.26
14117;BME280;7137;51.436;6.544;2023-02-08T15:42:33;103073.91;;;7.81;33.61
14117;BME280;7137;51.436;6.544;2023-02-08T15:45:36;103070.38;;;7.76;33.49
14117;BME280;7137;51.436;6.544;2023-02-08T15:48:41;103069.56;;;7.80;33.30
14117;BME280;7137;51.436;6.544;2023-02-08T15:51:45;103062.41;;;7.68;33.62
14117;BME280;7137;51.436;6.544;2023-02-08T15:54:47;103056.28;;;7.64;33.64
14117;BME280;7137;51.436;6.544;2023-02-08T15:57:54;103057.78;;;7.52;34.45
14117;BME280;7137;51.436;6.544;2023-02-08T16:01:01;103049.84;;;7.45;34.39
14117;BME280;7137;51.436;6.544;2023-02-08T16:04:04;103042.09;;;7.47;33.55
14117;BME280;7137;51.436;6.544;2023-02-08T16:07:21;103040.00;;;7.29;34.83
14117;BME280;7137;51.436;6.544;2023-02-08T16:10:29;103034.50;;;7.15;35.32
14117;BME280;7137;51.436;6.544;2023-02-08T16:13:35;103024.78;;;7.04;34.85
14117;BME280;7137;51.436;6.544;2023-02-08T16:16:41;103026.25;;;6.91;35.96
14117;BME280;7137;51.436;6.544;2023-02-08T16:19:49;103026.88;;;6.81;36.28
14117;BME280;7137;51.436;6.544;2023-02-08T16:22:56;103024.91;;;6.71;36.73
14117;BME280;7137;51.436;6.544;2023-02-08T16:26:09;103021.13;;;6.57;36.88
14117;BME280;7137;51.436;6.544;2023-02-08T16:29:17;103014.78;;;6.44;38.23
14117;BME280;7137;51.436;6.544;2023-02-08T16:32:25;103014.41;;;6.27;39.92
14117;BME280;7137;51.436;6.544;2023-02-08T16:35:28;103024.41;;;6.12;40.53
14117;BME280;7137;51.436;6.544;2023-02-08T16:38:31;103015.41;;;5.98;41.50
14117;BME280;7137;51.436;6.544;2023-02-08T16:41:58;103010.69;;;5.83;41.98